createdAt,value
2018-07-24T00:04:24.125Z,18.40
2018-07-24T00:08:58.325Z,18.40
2018-07-24T00:13:32.644Z,18.40
2018-07-24T00:18:08.091Z,18.30
2018-07-24T00:27:17.556Z,18.10
2018-07-24T00:31:53.116Z,18.00
2018-07-24T00:36:27.487Z,17.90
2018-07-24T00:41:03.027Z,17.70
2018-07-24T00:45:37.263Z,17.60
2018-07-24T00:54:47.778Z,17.50
2018-07-24T00:59:23.106Z,17.50
2018-07-24T01:03:58.811Z,17.60
2018-07-24T01:08:33.769Z,17.60
2018-07-24T01:13:08.228Z,17.50
2018-07-24T01:17:43.220Z,17.50
2018-07-24T01:22:17.375Z,17.40
2018-07-24T01:26:51.583Z,17.30
2018-07-24T01:31:25.767Z,17.20
2018-07-24T01:36:00.568Z,17.20
2018-07-24T01:45:08.711Z,17.10
2018-07-24T01:49:43.579Z,17.10
2018-07-24T01:54:18.695Z,17.10
2018-07-24T01:58:54.915Z,17.00
2018-07-24T02:03:29.780Z,17.00
2018-07-24T02:08:05.222Z,16.90
2018-07-24T02:17:14.600Z,16.80
2018-07-24T02:21:49.819Z,16.70
2018-07-24T02:26:25.390Z,16.60
2018-07-24T02:31:00.234Z,16.60
2018-07-24T02:35:34.524Z,16.50
2018-07-24T02:40:08.820Z,16.40
2018-07-24T02:49:17.608Z,16.40
2018-07-24T02:53:52.107Z,16.40
2018-07-24T02:58:26.391Z,16.30
2018-07-24T03:03:02.700Z,16.30
2018-07-24T03:07:37.468Z,16.20
2018-07-24T03:12:12.404Z,16.20
2018-07-24T03:16:46.804Z,16.30
2018-07-24T03:21:21.634Z,16.20
2018-07-24T03:25:56.940Z,16.20
2018-07-24T03:30:32.735Z,16.10
2018-07-24T03:35:09.301Z,16.10
2018-07-24T03:44:18.224Z,16.10
2018-07-24T03:48:52.515Z,16.10
2018-07-24T03:53:27.417Z,15.90
2018-07-24T03:58:01.682Z,15.90
2018-07-24T04:02:36.055Z,15.80
2018-07-24T04:07:11.280Z,15.80
2018-07-24T04:11:45.829Z,15.80
2018-07-24T04:20:53.987Z,15.80
2018-07-24T04:25:29.525Z,15.80
2018-07-24T04:34:38.112Z,15.80
2018-07-24T04:39:13.016Z,15.80
2018-07-24T04:43:47.283Z,15.90
2018-07-24T04:48:22.466Z,16.00
2018-07-24T04:52:57.683Z,16.10
2018-07-24T04:57:31.996Z,16.20
2018-07-24T05:02:06.903Z,16.30
2018-07-24T05:06:41.924Z,16.40
2018-07-24T05:11:16.612Z,16.50
2018-07-24T05:15:53.391Z,16.70
2018-07-24T05:20:28.138Z,16.80
2018-07-24T05:25:02.588Z,17.00
2018-07-24T05:29:37.831Z,17.20
2018-07-24T05:34:12.153Z,17.30
2018-07-24T05:38:47.084Z,17.50
2018-07-24T05:43:22.011Z,17.70
2018-07-24T05:47:56.326Z,18.00
2018-07-24T05:52:31.260Z,18.20
2018-07-24T05:57:06.923Z,18.40
2018-07-24T06:01:41.920Z,18.70
2018-07-24T06:06:16.679Z,18.90
2018-07-24T06:10:51.808Z,19.10
2018-07-24T06:15:27.017Z,19.30
2018-07-24T06:20:01.216Z,19.60
2018-07-24T06:24:36.227Z,19.90
2018-07-24T06:29:11.273Z,20.20
2018-07-24T06:33:45.488Z,20.50
2018-07-24T06:38:20.924Z,20.80
2018-07-24T06:42:55.404Z,21.10
2018-07-24T06:47:30.288Z,21.50
2018-07-24T06:52:04.520Z,21.80
2018-07-24T06:56:38.929Z,22.20
2018-07-24T07:01:13.145Z,22.50
2018-07-24T07:05:48.263Z,22.90
2018-07-24T07:10:22.837Z,23.20
2018-07-24T07:14:57.852Z,23.60
2018-07-24T07:19:32.012Z,24.00
2018-07-24T07:24:06.380Z,24.40
2018-07-24T07:28:41.079Z,24.70
2018-07-24T07:33:15.510Z,24.90
2018-07-24T07:42:25.100Z,25.30
2018-07-24T07:47:00.807Z,25.70
2018-07-24T07:51:35.228Z,26.20
2018-07-24T07:56:09.611Z,26.70
2018-07-24T08:00:44.880Z,27.10
2018-07-24T08:05:19.771Z,27.50
2018-07-24T08:09:54.887Z,27.70
2018-07-24T08:14:29.051Z,28.00
2018-07-24T08:19:03.952Z,28.50
2018-07-24T08:28:14.747Z,29.40
2018-07-24T08:32:49.096Z,30.10
2018-07-24T08:37:24.463Z,31.50
2018-07-24T08:41:58.799Z,32.60
2018-07-24T08:46:33.244Z,34.00
2018-07-24T08:51:07.383Z,35.40
2018-07-24T08:55:43.701Z,36.40
2018-07-24T09:00:17.891Z,36.80
2018-07-24T09:04:52.079Z,36.60
2018-07-24T09:09:28.275Z,36.80
2018-07-24T09:14:03.132Z,37.20
2018-07-24T09:18:37.416Z,37.70
2018-07-24T09:23:13.295Z,37.50
2018-07-24T09:27:48.743Z,37.70
2018-07-24T09:32:23.694Z,37.50
2018-07-24T09:36:57.958Z,37.60
2018-07-24T09:41:32.148Z,38.20
2018-07-24T09:46:06.689Z,39.00
2018-07-24T09:50:40.899Z,38.60
2018-07-24T09:55:16.523Z,38.40
2018-07-24T09:59:50.800Z,38.60
2018-07-24T10:04:25.188Z,39.00
2018-07-24T10:09:00.364Z,39.30
2018-07-24T10:13:35.390Z,39.80
2018-07-24T10:18:09.728Z,39.50
2018-07-24T10:22:43.968Z,39.60
2018-07-24T10:27:18.105Z,39.80
2018-07-24T10:31:52.392Z,39.40
2018-07-24T10:36:27.557Z,39.40
2018-07-24T10:41:01.741Z,39.30
2018-07-24T10:45:35.951Z,39.40
2018-07-24T10:50:10.244Z,39.90
2018-07-24T10:54:45.314Z,39.90
2018-07-24T11:03:54.620Z,39.80
2018-07-24T11:08:29.511Z,39.60
2018-07-24T11:13:04.388Z,40.10
2018-07-24T11:17:38.569Z,40.90
2018-07-24T11:22:12.845Z,41.20
2018-07-24T11:26:48.371Z,40.90
2018-07-24T11:31:23.464Z,40.70
2018-07-24T11:35:58.672Z,41.20
2018-07-24T11:40:32.714Z,41.50
2018-07-24T11:45:07.310Z,41.30
2018-07-24T11:49:41.512Z,41.50
2018-07-24T11:54:15.880Z,41.00
2018-07-24T11:58:50.727Z,40.40
2018-07-24T12:03:25.536Z,40.90
2018-07-24T12:07:59.899Z,41.90
2018-07-24T12:12:34.167Z,41.50
2018-07-24T12:17:08.376Z,40.50
2018-07-24T12:21:43.195Z,40.20
2018-07-24T12:26:17.564Z,40.30
2018-07-24T12:30:51.744Z,40.50
2018-07-24T12:35:26.085Z,40.90
2018-07-24T12:40:01.100Z,41.50
2018-07-24T12:49:09.660Z,41.50
2018-07-24T12:53:44.291Z,40.60
2018-07-24T12:58:18.833Z,39.10
2018-07-24T13:02:53.140Z,39.40
2018-07-24T13:07:27.362Z,39.80
2018-07-24T13:12:01.804Z,39.70
2018-07-24T13:16:36.333Z,40.00
2018-07-24T13:21:10.460Z,40.50
2018-07-24T13:25:45.696Z,40.10
2018-07-24T13:30:19.889Z,38.00
2018-07-24T13:34:54.855Z,37.90
2018-07-24T13:39:29.055Z,38.00
2018-07-24T13:44:03.671Z,37.90
2018-07-24T13:48:38.512Z,37.80
2018-07-24T13:53:13.811Z,36.90
2018-07-24T13:57:48.099Z,36.20
2018-07-24T14:02:23.091Z,36.00
2018-07-24T14:06:57.730Z,35.80
2018-07-24T14:11:32.564Z,35.70
2018-07-24T14:16:07.514Z,35.70
2018-07-24T14:20:42.452Z,35.70
2018-07-24T14:25:17.280Z,35.60
2018-07-24T14:29:52.978Z,35.20
2018-07-24T14:34:27.204Z,35.10
2018-07-24T14:39:01.440Z,35.00
2018-07-24T14:43:36.601Z,35.00
2018-07-24T14:48:11.539Z,35.00
2018-07-24T14:57:21.036Z,35.00
2018-07-24T15:06:30.168Z,34.60
2018-07-24T15:11:04.465Z,34.60
2018-07-24T15:15:39.532Z,34.40
2018-07-24T15:20:14.515Z,34.20
2018-07-24T15:24:50.048Z,34.10
2018-07-24T15:29:24.508Z,34.10
2018-07-24T15:34:00.187Z,34.10
2018-07-24T15:38:34.528Z,34.10
2018-07-24T15:43:09.028Z,34.20
2018-07-24T15:47:45.020Z,34.00
2018-07-24T15:52:19.376Z,34.00
2018-07-24T15:56:54.427Z,34.00
2018-07-24T16:01:28.800Z,33.80
2018-07-24T16:06:03.159Z,34.10
2018-07-24T16:10:38.292Z,34.00
2018-07-24T16:15:12.781Z,33.90
2018-07-24T16:19:47.167Z,33.80
2018-07-24T16:24:22.724Z,33.60
2018-07-24T16:28:58.399Z,33.40
2018-07-24T16:33:32.798Z,33.10
2018-07-24T16:38:08.084Z,32.80
2018-07-24T16:42:42.376Z,32.50
2018-07-24T16:47:16.905Z,32.50
2018-07-24T16:51:51.441Z,32.30
2018-07-24T16:56:25.927Z,32.20
2018-07-24T17:01:00.812Z,32.10
2018-07-24T17:10:09.520Z,31.90
2018-07-24T17:14:43.965Z,31.90
2018-07-24T17:19:18.225Z,31.80
2018-07-24T17:23:54.000Z,31.80
2018-07-24T17:28:28.763Z,31.70
2018-07-24T17:33:03.147Z,31.60
2018-07-24T17:37:37.680Z,31.40
2018-07-24T17:42:11.941Z,31.30
2018-07-24T17:46:46.279Z,31.20
2018-07-24T17:51:20.617Z,31.20
2018-07-24T17:55:54.908Z,31.10
2018-07-24T18:00:29.434Z,30.90
2018-07-24T18:05:04.818Z,30.70
2018-07-24T18:09:39.674Z,30.60
2018-07-24T18:14:14.421Z,30.40
2018-07-24T18:18:48.789Z,30.30
2018-07-24T18:23:23.643Z,30.30
2018-07-24T18:27:58.145Z,30.20
2018-07-24T18:32:32.396Z,30.00
2018-07-24T18:37:06.687Z,29.80
2018-07-24T18:41:41.968Z,29.60
2018-07-24T18:46:16.200Z,29.40
2018-07-24T18:50:50.346Z,29.10
2018-07-24T18:55:26.493Z,28.80
2018-07-24T19:00:01.380Z,28.50
2018-07-24T19:04:36.420Z,28.20
2018-07-24T19:09:12.215Z,28.00
2018-07-24T19:13:46.984Z,27.70
2018-07-24T19:18:21.804Z,27.50
2018-07-24T19:22:56.101Z,27.20
2018-07-24T19:27:31.007Z,26.80
2018-07-24T19:32:06.037Z,26.60
2018-07-24T19:36:40.932Z,26.40
2018-07-24T19:41:17.163Z,26.20
2018-07-24T19:45:53.250Z,26.00
2018-07-24T19:50:29.299Z,25.70
2018-07-24T19:55:03.509Z,25.50
2018-07-24T19:59:37.875Z,25.40
2018-07-24T20:04:12.092Z,25.30
2018-07-24T20:08:46.702Z,25.10
2018-07-24T20:13:21.501Z,25.00
2018-07-24T20:17:56.308Z,24.80
2018-07-24T20:22:30.610Z,24.60
2018-07-24T20:27:04.823Z,24.40
2018-07-24T20:31:39.068Z,24.20
2018-07-24T20:36:14.217Z,24.10
2018-07-24T20:40:48.553Z,23.90
2018-07-24T20:45:22.756Z,23.70
2018-07-24T20:49:57.247Z,23.60
2018-07-24T20:54:33.514Z,23.40
2018-07-24T20:59:07.708Z,23.30
2018-07-24T21:03:42.173Z,23.20
2018-07-24T21:08:16.354Z,23.10
2018-07-24T21:12:51.172Z,23.00
2018-07-24T21:17:26.005Z,22.90
2018-07-24T21:22:01.235Z,22.80
2018-07-24T21:26:36.192Z,22.70
2018-07-24T21:35:46.043Z,22.50
2018-07-24T21:40:21.645Z,22.50
2018-07-24T21:44:55.840Z,22.30
2018-07-24T21:49:30.037Z,22.20
2018-07-24T21:54:04.252Z,22.10
2018-07-24T21:58:38.749Z,21.80
2018-07-24T22:07:47.764Z,21.70
2018-07-24T22:12:22.639Z,21.60
2018-07-24T22:16:57.756Z,21.50
2018-07-24T22:21:32.040Z,21.50
2018-07-24T22:26:07.088Z,21.40
2018-07-24T22:30:41.322Z,21.20
2018-07-24T22:35:16.809Z,21.10
2018-07-24T22:39:51.214Z,21.10
2018-07-24T22:44:26.076Z,21.00
2018-07-24T22:49:00.297Z,20.90
2018-07-24T22:53:34.436Z,20.70
2018-07-24T22:58:08.983Z,20.60
2018-07-24T23:02:43.240Z,20.50
2018-07-24T23:07:18.355Z,20.30
2018-07-24T23:11:54.307Z,20.20
2018-07-24T23:16:29.756Z,20.20
2018-07-24T23:21:03.999Z,20.30
2018-07-24T23:25:40.821Z,20.20
2018-07-24T23:30:15.667Z,20.20
2018-07-24T23:34:50.080Z,20.20
2018-07-24T23:39:24.224Z,20.10
2018-07-24T23:43:59.045Z,20.00
2018-07-24T23:48:33.860Z,20.00
2018-07-24T23:53:08.840Z,19.90
2018-07-24T23:57:43.957Z,19.80
